Test XHTML 1.0 Strict Page for WU-History Testing
Histórico de la Estación METEOCORUÑA
Diario Datos del Noviembre 10, 2018 Unidades:  Metrico    Inglés   Ambos
« Prev Dia
Sig Dia »
Diario Semanal Mensual Anual Rango
  Max: Min: Media:
Temp: -17.8 °C -10.8 °C -9.7 °C
Rocío: -17.8 °C -12.2 °C -11.5 °C
Humedad: Humidity % 73 % 81 %
Vel. viento: 0 km/h 15.6 km/h 37.5 km/h
Racha: 0 km/h - -
Viento:- - South
Presión: 0 hPa 33998.8 hPa -
Lluvia: 187.96 mm    
Historical Graphs
 
 
Busqueda de Noviembre 10, 2018
Hora Temp Rocío Presión Viento Vel. viento Racha Humedad Ratio lluvia (/hora) Radiación
-17.8 °C -17.8 °C 0 hPa Calm     Humidity % 0 mm SolarRadiationWatts/m^2 W/m2
00:04 -10.5 °C -12 °C 34005.6 hPa South 51.8 km/h 69.8 km/h 84 % 25.4 mm 0.00 W/m2
00:09 -10.4 °C -11.8 °C 34012.4 hPa South 49.2 km/h 77.7 km/h 84 % 20.32 mm 0.00 W/m2
00:14 -10.3 °C -11.7 °C 34012.4 hPa South 46.7 km/h 101.1 km/h 85 % 20.32 mm 0.00 W/m2
00:19 -10.2 °C -11.6 °C 34005.6 hPa South 49.2 km/h 72.6 km/h 85 % 12.7 mm 0.00 W/m2
00:24 -10.2 °C -11.6 °C 34009 hPa South 46.7 km/h 67.3 km/h 85 % 12.7 mm 0.00 W/m2
00:29 -10.1 °C -11.5 °C 34009 hPa South 41.4 km/h 77.7 km/h 85 % 12.7 mm 0.00 W/m2
00:34 -9.9 °C -11.3 °C 34005.6 hPa South 41.4 km/h 69.8 km/h 85 % 12.7 mm 0.00 W/m2
00:39 -9.9 °C -11.4 °C 34005.6 hPa South 46.7 km/h 80.3 km/h 84 % 7.62 mm 0.00 W/m2
00:44 -10.1 °C -11.4 °C 34005.6 hPa South 46.7 km/h 62.1 km/h 85 % 7.62 mm 0.00 W/m2
00:49 -10 °C -11.5 °C 34009 hPa South 44.1 km/h 64.7 km/h 84 % 7.62 mm 0.00 W/m2
00:54 -9.9 °C -11.4 °C 34009 hPa South 41.4 km/h 69.8 km/h 84 % 7.62 mm 0.00 W/m2
00:59 -9.9 °C -11.4 °C 34015.8 hPa South 38.8 km/h 75.2 km/h 84 % 7.62 mm 0.00 W/m2
01:04 -9.9 °C -11.4 °C 34015.8 hPa South 38.8 km/h 75.2 km/h 84 % 0 mm 0.00 W/m2
01:09 -9.9 °C -11.4 °C 34022.5 hPa SSW 38.8 km/h 46.7 km/h 84 % 0 mm 0.00 W/m2
01:14 -10 °C -11.4 °C 34025.9 hPa SSW 31.1 km/h 54.4 km/h 85 % 0 mm 0.00 W/m2
01:19 -10 °C -11.3 °C 34025.9 hPa SSW 31.1 km/h 72.6 km/h 86 % 0 mm 0.00 W/m2
01:24 -10 °C -11.3 °C 34025.9 hPa SSW 33.6 km/h 67.3 km/h 86 % 0 mm 0.00 W/m2
01:29 -10.1 °C -11.3 °C 34025.9 hPa SSW 33.6 km/h 59.5 km/h 86 % 0 mm 0.00 W/m2
01:34 -10.1 °C -11.3 °C 34032.7 hPa SSW 33.6 km/h 54.4 km/h 86 % 0 mm 0.00 W/m2
01:39 -10.1 °C -11.4 °C 34029.3 hPa South 36.2 km/h 49.2 km/h 86 % 0 mm 0.00 W/m2
01:44 -10.1 °C -11.3 °C 34025.9 hPa South 31.1 km/h 49.2 km/h 87 % 0 mm 0.00 W/m2
01:49 -10.1 °C -11.3 °C 34025.9 hPa SSW 28.5 km/h 41.4 km/h 87 % 0 mm 0.00 W/m2
01:54 -10.1 °C -11.3 °C 34025.9 hPa South 28.5 km/h 51.8 km/h 87 % 0 mm 0.00 W/m2
01:59 -10.1 °C -11.2 °C 34022.5 hPa South 28.5 km/h 44.1 km/h 87 % 0 mm 0.00 W/m2
02:04 -10 °C -11.2 °C 34022.5 hPa South 28.5 km/h 49.2 km/h 87 % 0 mm 0.00 W/m2
02:09 -9.9 °C -11.2 °C 34019.1 hPa South 28.5 km/h 57 km/h 87 % 0 mm 0.00 W/m2
02:14 -9.8 °C -11.1 °C 34012.4 hPa South 31.1 km/h 44.1 km/h 86 % 0 mm 0.00 W/m2
02:19 -9.8 °C -11.1 °C 34012.4 hPa South 31.1 km/h 49.2 km/h 86 % 0 mm 0.00 W/m2
02:24 -9.8 °C -11.1 °C 34005.6 hPa South 28.5 km/h 62.1 km/h 86 % 0 mm 0.00 W/m2
02:29 -9.7 °C -11.1 °C 34009 hPa South 31.1 km/h 46.7 km/h 85 % 0 mm 0.00 W/m2
02:34 -9.7 °C -11.1 °C 34009 hPa South 31.1 km/h 57 km/h 85 % 0 mm 0.00 W/m2
02:39 -9.6 °C -11 °C 34005.6 hPa South 31.1 km/h 90.6 km/h 85 % 0 mm 0.00 W/m2
02:44 -9.7 °C -11.1 °C 34005.6 hPa South 41.4 km/h 64.7 km/h 85 % 0 mm 0.00 W/m2
02:49 -9.7 °C -11 °C 34002.2 hPa SSW 41.4 km/h 51.8 km/h 86 % 0 mm 0.00 W/m2
02:54 -9.8 °C -11.1 °C 34002.2 hPa WSW 31.1 km/h 41.4 km/h 86 % 0 mm 0.00 W/m2
02:59 -10.2 °C -11.5 °C 33998.8 hPa WSW 20.8 km/h 33.6 km/h 86 % 0 mm 0.00 W/m2
03:04 -10.4 °C -11.5 °C 34002.2 hPa SSW 15.6 km/h 46.7 km/h 88 % 7.62 mm 0.00 W/m2
03:09 -10.4 °C -11.3 °C 34009 hPa SSW 18.2 km/h 36.2 km/h 90 % 7.62 mm 0.00 W/m2
03:14 -10.4 °C -11.2 °C 34009 hPa SSW 20.8 km/h 51.8 km/h 91 % 38.1 mm 0.00 W/m2
03:19 -10.6 °C -11.3 °C 34009 hPa SSW 28.5 km/h 75.2 km/h 92 % 71.12 mm 0.00 W/m2
03:24 -10.7 °C -11.3 °C 34009 hPa SSW 31.1 km/h 54.4 km/h 92 % 83.82 mm 0.00 W/m2
03:29 -10.7 °C -11.4 °C 34005.6 hPa SSW 31.1 km/h 67.3 km/h 92 % 96.52 mm 0.00 W/m2
03:34 -10.8 °C -11.4 °C 34015.8 hPa SSW 28.5 km/h 62.1 km/h 93 % 134.62 mm 0.00 W/m2
03:39 -10.7 °C -11.2 °C 34012.4 hPa SSW 33.6 km/h 59.5 km/h 94 % 154.94 mm 0.00 W/m2
03:44 -10.7 °C -11.2 °C 34012.4 hPa SSW 33.6 km/h 59.5 km/h 94 % 167.64 mm 0.00 W/m2
03:49 -10.7 °C -11.2 °C 34012.4 hPa SSW 33.6 km/h 62.1 km/h 94 % 175.26 mm 0.00 W/m2
03:54 -10.7 °C -11.2 °C 34009 hPa SSW 31.1 km/h 46.7 km/h 94 % 175.26 mm 0.00 W/m2
03:59 -10.7 °C -11.2 °C 34009 hPa SSW 28.5 km/h 44.1 km/h 94 % 175.26 mm 0.00 W/m2
04:04 -10.7 °C -11.2 °C 34009 hPa SSW 23.3 km/h 49.2 km/h 94 % 167.64 mm 0.00 W/m2
04:09 -10.6 °C -11.2 °C 34009 hPa SSW 28.5 km/h 51.8 km/h 94 % 167.64 mm 0.00 W/m2
04:14 -10.6 °C -11.1 °C 34009 hPa SSW 28.5 km/h 49.2 km/h 94 % 134.62 mm 0.00 W/m2
04:19 -10.5 °C -11 °C 34012.4 hPa SSW 25.9 km/h 46.7 km/h 94 % 109.22 mm 0.00 W/m2
04:24 -10.5 °C -11.1 °C 34012.4 hPa SSW 25.9 km/h 49.2 km/h 93 % 96.52 mm 0.00 W/m2
04:29 -10.4 °C -11.1 °C 34015.8 hPa SSW 25.9 km/h 54.4 km/h 93 % 76.2 mm 0.00 W/m2
04:34 -10.5 °C -11.1 °C 34019.1 hPa SSW 28.5 km/h 62.1 km/h 93 % 38.1 mm 0.00 W/m2
04:39 -10.5 °C -11.2 °C 34019.1 hPa SSW 31.1 km/h 62.1 km/h 92 % 25.4 mm 0.00 W/m2
04:44 -10.4 °C -11.3 °C 34019.1 hPa SSW 36.2 km/h 75.2 km/h 90 % 12.7 mm 0.00 W/m2
04:49 -10.4 °C -11.4 °C 34015.8 hPa SSW 38.8 km/h 69.8 km/h 89 % 7.62 mm 0.00 W/m2
04:54 -10.4 °C -11.5 °C 34015.8 hPa SSW 41.4 km/h 67.3 km/h 88 % 7.62 mm 0.00 W/m2
04:59 -10.4 °C -11.5 °C 34022.5 hPa SSW 41.4 km/h 69.8 km/h 88 % 7.62 mm 0.00 W/m2
05:04 -10.4 °C -11.5 °C 34019.1 hPa SSW 38.8 km/h 62.1 km/h 88 % 7.62 mm 0.00 W/m2
05:09 -10.5 °C -11.7 °C 34022.5 hPa SSW 41.4 km/h 67.3 km/h 87 % 0 mm 0.00 W/m2
05:14 -10.6 °C -11.7 °C 34022.5 hPa SSW 38.8 km/h 49.2 km/h 87 % 0 mm 0.00 W/m2
05:19 -10.6 °C -11.7 °C 34022.5 hPa SSW 33.6 km/h 59.5 km/h 87 % 0 mm 0.00 W/m2
05:24 -10.6 °C -11.8 °C 34025.9 hPa SSW 33.6 km/h 64.7 km/h 87 % 0 mm 0.00 W/m2
05:29 -10.7 °C -11.8 °C 34025.9 hPa South 33.6 km/h 54.4 km/h 87 % 0 mm 0.00 W/m2
05:34 -10.7 °C -11.9 °C 34029.3 hPa South 31.1 km/h 49.2 km/h 87 % 0 mm 0.00 W/m2
05:39 -10.7 °C -11.8 °C 34032.7 hPa South 31.1 km/h 64.7 km/h 87 % 0 mm 0.00 W/m2
05:44 -10.7 °C -11.8 °C 34029.3 hPa South 36.2 km/h 54.4 km/h 87 % 0 mm 0.00 W/m2
05:49 -10.6 °C -11.9 °C 34036.1 hPa South 36.2 km/h 72.6 km/h 86 % 0 mm 0.00 W/m2
05:54 -10.7 °C -11.9 °C 34036.1 hPa South 36.2 km/h 54.4 km/h 86 % 0 mm 0.00 W/m2
05:59 -10.6 °C -11.9 °C 34039.5 hPa South 36.2 km/h 57 km/h 86 % 0 mm 0.00 W/m2
06:04 -10.7 °C -11.9 °C 34039.5 hPa South 33.6 km/h 59.5 km/h 86 % 0 mm 0.00 W/m2
06:09 -10.6 °C -11.9 °C 34042.8 hPa South 36.2 km/h 57 km/h 86 % 0 mm 0.00 W/m2
06:14 -10.6 °C -11.9 °C 34042.8 hPa South 33.6 km/h 54.4 km/h 86 % 0 mm 0.00 W/m2
06:19 -10.6 °C -12 °C 34046.2 hPa South 33.6 km/h 57 km/h 85 % 0 mm 0.00 W/m2
06:24 -10.6 °C -11.9 °C 34042.8 hPa South 33.6 km/h 62.1 km/h 85 % 0 mm 0.00 W/m2
06:29 -10.7 °C -12.1 °C 34046.2 hPa South 36.2 km/h 46.7 km/h 85 % 0 mm 0.00 W/m2
06:34 -10.7 °C -12.1 °C 34049.6 hPa South 33.6 km/h 51.8 km/h 85 % 0 mm 0.00 W/m2
06:39 -10.7 °C -12.1 °C 34053 hPa South 28.5 km/h 51.8 km/h 85 % 0 mm 0.00 W/m2
06:44 -10.7 °C -12.1 °C 34053 hPa South 28.5 km/h 57 km/h 85 % 0 mm 0.00 W/m2
06:49 -10.7 °C -12.1 °C 34056.4 hPa South 31.1 km/h 54.4 km/h 84 % 0 mm 0.00 W/m2
06:54 -10.7 °C -12.1 °C 34053 hPa South 31.1 km/h 57 km/h 85 % 0 mm 0.00 W/m2
06:59 -10.7 °C -12.1 °C 34053 hPa South 28.5 km/h 57 km/h 84 % 0 mm 0.00 W/m2
07:04 -10.7 °C -12.1 °C 34049.6 hPa South 31.1 km/h 54.4 km/h 84 % 0 mm 0.00 W/m2
07:09 -10.6 °C -12.1 °C 34046.2 hPa South 33.6 km/h 67.3 km/h 84 % 0 mm 0.00 W/m2
07:14 -10.6 °C -12.1 °C 34046.2 hPa South 33.6 km/h 67.3 km/h 84 % 0 mm 0.00 W/m2
07:19 -10.5 °C -12 °C 34036.1 hPa SSE 33.6 km/h 57 km/h 84 % 0 mm 0.00 W/m2
07:24 -10.5 °C -12 °C 34032.7 hPa South 28.5 km/h 38.8 km/h 84 % 0 mm 0.00 W/m2
07:29 -10.6 °C -12.1 °C 34036.1 hPa SSE 23.3 km/h 38.8 km/h 84 % 0 mm 0.00 W/m2
07:34 -10.5 °C -12 °C 34036.1 hPa South 20.8 km/h 54.4 km/h 84 % 0 mm 0.00 W/m2
07:39 -10.4 °C -12 °C 34032.7 hPa SSE 23.3 km/h 54.4 km/h 83 % 0 mm 0.00 W/m2
07:44 -10.4 °C -12.1 °C 34039.5 hPa SSE 25.9 km/h 59.5 km/h 82 % 0 mm 0.00 W/m2
07:49 -10.4 °C -12.1 °C 34039.5 hPa SSE 28.5 km/h 57 km/h 82 % 0 mm 0.00 W/m2
07:54 -10.4 °C -12.1 °C 34036.1 hPa SSE 28.5 km/h 54.4 km/h 82 % 0 mm 0.00 W/m2
07:59 -10.3 °C -12 °C 34036.1 hPa SSE 28.5 km/h 64.7 km/h 82 % 0 mm 0.00 W/m2
08:04 -10.3 °C -12 °C 34036.1 hPa South 28.5 km/h 62.1 km/h 82 % 0 mm 0.00 W/m2
08:09 -10.3 °C -12 °C 34039.5 hPa South 31.1 km/h 57 km/h 82 % 0 mm 0.00 W/m2
08:14 -10.2 °C -11.9 °C 34032.7 hPa South 33.6 km/h 69.8 km/h 82 % 7.62 mm 0.00 W/m2
08:19 -10.3 °C -11.9 °C 34029.3 hPa South 31.1 km/h 44.1 km/h 82 % 7.62 mm 0.00 W/m2
08:24 -10.3 °C -11.9 °C 34029.3 hPa SSE 23.3 km/h 49.2 km/h 82 % 7.62 mm 5.00 W/m2
08:29 -10.3 °C -11.9 °C 34036.1 hPa South 25.9 km/h 69.8 km/h 82 % 7.62 mm 5.00 W/m2
08:34 -10.2 °C -12 °C 34032.7 hPa South 31.1 km/h 57 km/h 81 % 7.62 mm 7.00 W/m2
08:39 -10.2 °C -12 °C 34032.7 hPa South 33.6 km/h 62.1 km/h 81 % 7.62 mm 9.00 W/m2
08:44 -10.2 °C -12 °C 34036.1 hPa South 28.5 km/h 69.8 km/h 81 % 7.62 mm 12.00 W/m2
08:49 -10.2 °C -11.9 °C 34036.1 hPa SSE 28.5 km/h 51.8 km/h 81 % 7.62 mm 12.00 W/m2
08:54 -10.2 °C -11.9 °C 34042.8 hPa SSE 28.5 km/h 36.2 km/h 81 % 7.62 mm 18.00 W/m2
08:59 -10.2 °C -12 °C 34042.8 hPa SSE 23.3 km/h 49.2 km/h 81 % 7.62 mm 16.00 W/m2
09:04 -10.1 °C -11.9 °C 34042.8 hPa South 28.5 km/h 59.5 km/h 81 % 7.62 mm 16.00 W/m2
09:09 -10.2 °C -11.9 °C 34049.6 hPa South 28.5 km/h 69.8 km/h 81 % 7.62 mm 21.00 W/m2
09:14 -10.2 °C -11.9 °C 34049.6 hPa SSE 31.1 km/h 59.5 km/h 81 % 0 mm 28.00 W/m2
09:19 -10.2 °C -11.9 °C 34046.2 hPa SSE 31.1 km/h 41.4 km/h 81 % 0 mm 47.00 W/m2
09:24 -10.2 °C -11.9 °C 34039.5 hPa South 25.9 km/h 64.7 km/h 81 % 0 mm 40.00 W/m2
09:29 -10.1 °C -11.9 °C 34039.5 hPa SSE 25.9 km/h 51.8 km/h 81 % 0 mm 37.00 W/m2
09:34 -10.1 °C -11.8 °C 34039.5 hPa SSE 28.5 km/h 75.2 km/h 81 % 0 mm 32.00 W/m2
09:39 -10.1 °C -11.8 °C 34039.5 hPa South 25.9 km/h 51.8 km/h 81 % 0 mm 42.00 W/m2
09:44 -10.1 °C -11.8 °C 34036.1 hPa South 23.3 km/h 64.7 km/h 81 % 0 mm 30.00 W/m2
09:49 -10.1 °C -11.8 °C 34039.5 hPa South 23.3 km/h 64.7 km/h 81 % 0 mm 23.00 W/m2
09:54 -10.1 °C -11.8 °C 34032.7 hPa SSE 33.6 km/h 54.4 km/h 81 % 0 mm 25.00 W/m2
09:59 -10.1 °C -11.8 °C 34036.1 hPa SSE 31.1 km/h 85.5 km/h 81 % 0 mm 30.00 W/m2
10:04 -10.1 °C -11.9 °C 34032.7 hPa SSE 36.2 km/h 103.6 km/h 80 % 0 mm 47.00 W/m2
10:09 -10.2 °C -12.1 °C 34032.7 hPa SSE 41.4 km/h 67.3 km/h 80 % 0 mm 39.00 W/m2
10:14 -10.2 °C -12.2 °C 34029.3 hPa SSE 44.1 km/h 95.8 km/h 79 % 0 mm 40.00 W/m2
10:19 -10.2 °C -12.2 °C 34015.8 hPa South 44.1 km/h 75.2 km/h 79 % 0 mm 53.00 W/m2
10:24 -10.2 °C -12.2 °C 34022.5 hPa SSE 41.4 km/h 77.7 km/h 79 % 0 mm 65.00 W/m2
10:29 -10.2 °C -12.2 °C 34022.5 hPa SSE 44.1 km/h 69.8 km/h 79 % 0 mm 70.00 W/m2
10:34 -10.2 °C -12.1 °C 34019.1 hPa SSE 38.8 km/h 57 km/h 80 % 0 mm 76.00 W/m2
10:39 -10.2 °C -12.1 °C 34019.1 hPa SSE 33.6 km/h 67.3 km/h 80 % 0 mm 76.00 W/m2
10:44 -10.2 °C -12 °C 34015.8 hPa South 33.6 km/h 64.7 km/h 81 % 0 mm 65.00 W/m2
10:49 -10.3 °C -11.9 °C 34019.1 hPa South 31.1 km/h 64.7 km/h 82 % 0 mm 63.00 W/m2
10:54 -10.2 °C -11.9 °C 34012.4 hPa SSE 25.9 km/h 64.7 km/h 82 % 0 mm 65.00 W/m2
10:59 -10.1 °C -11.9 °C 34015.8 hPa SSE 28.5 km/h 67.3 km/h 81 % 0 mm 67.00 W/m2
11:04 -10 °C -11.8 °C 34009 hPa SSE 33.6 km/h 57 km/h 81 % 0 mm 79.00 W/m2
11:09 -10.1 °C -11.8 °C 34012.4 hPa South 28.5 km/h 64.7 km/h 81 % 0 mm 84.00 W/m2
11:14 -9.9 °C -11.7 °C 34012.4 hPa South 28.5 km/h 57 km/h 81 % 0 mm 107.00 W/m2
11:19 -9.8 °C -11.6 °C 34015.8 hPa South 36.2 km/h 67.3 km/h 81 % 0 mm 137.00 W/m2
11:24 -9.7 °C -11.7 °C 34019.1 hPa South 38.8 km/h 69.8 km/h 79 % 0 mm 135.00 W/m2
11:29 -9.7 °C -11.7 °C 34019.1 hPa South 41.4 km/h 72.6 km/h 79 % 0 mm 178.00 W/m2
11:34 -9.7 °C -11.6 °C 34019.1 hPa South 38.8 km/h 75.2 km/h 80 % 0 mm 253.00 W/m2
11:39 -9.6 °C -11.5 °C 34019.1 hPa SSW 41.4 km/h 85.5 km/h 80 % 0 mm 318.00 W/m2
11:44 -9.6 °C -11.4 °C 34019.1 hPa South 41.4 km/h 77.7 km/h 80 % 0 mm 401.00 W/m2
11:49 -9.4 °C -11.2 °C 34015.8 hPa South 38.8 km/h 62.1 km/h 81 % 0 mm 406.00 W/m2
11:54 -9.4 °C -11.2 °C 34019.1 hPa SSW 38.8 km/h 62.1 km/h 81 % 0 mm 406.00 W/m2
11:59 -9.3 °C -11.2 °C 34019.1 hPa South 36.2 km/h 57 km/h 81 % 0 mm 411.00 W/m2
12:04 -9.3 °C -11.1 °C 34029.3 hPa South 33.6 km/h 72.6 km/h 81 % 0 mm 420.00 W/m2
12:09 -9.3 °C -11.2 °C 34025.9 hPa South 31.1 km/h 82.9 km/h 80 % 0 mm 422.00 W/m2
12:14 -9.2 °C -11 °C 34022.5 hPa South 41.4 km/h 80.3 km/h 81 % 0 mm 429.00 W/m2
12:19 -9.2 °C -11 °C 34025.9 hPa SSW 46.7 km/h 57 km/h 81 % 0 mm 429.00 W/m2
12:24 -9.2 °C -11 °C 34022.5 hPa SSW 38.8 km/h 64.7 km/h 81 % 0 mm 508.00 W/m2
12:29 -9.1 °C -10.8 °C 34022.5 hPa SSW 33.6 km/h 59.5 km/h 82 % 0 mm 524.00 W/m2
12:34 -9.1 °C -10.9 °C 34025.9 hPa SSW 31.1 km/h 51.8 km/h 81 % 0 mm 232.00 W/m2
12:39 -9.1 °C -10.9 °C 34022.5 hPa SSW 31.1 km/h 72.6 km/h 81 % 0 mm 441.00 W/m2
12:44 -9.1 °C -10.9 °C 34022.5 hPa SSW 38.8 km/h 64.7 km/h 81 % 0 mm 538.00 W/m2
12:49 -9.1 °C -11 °C 34025.9 hPa SSW 36.2 km/h 72.6 km/h 80 % 0 mm 121.00 W/m2
12:54 -9.2 °C -11.2 °C 34022.5 hPa SSW 38.8 km/h 88 km/h 80 % 0 mm 517.00 W/m2
12:59 -9.2 °C -11.1 °C 34022.5 hPa SSW 46.7 km/h 80.3 km/h 80 % 0 mm 142.00 W/m2
13:04 -9.2 °C -11.2 °C 34029.3 hPa SSW 41.4 km/h 54.4 km/h 80 % 0 mm 220.00 W/m2
13:09 -9.1 °C -11 °C 34029.3 hPa SSW 28.5 km/h 57 km/h 80 % 0 mm 223.00 W/m2
13:14 -9.1 °C -11 °C 34032.7 hPa SSW 28.5 km/h 51.8 km/h 80 % 0 mm 547.00 W/m2
13:19 -9.1 °C -10.9 °C 34029.3 hPa SSW 28.5 km/h 46.7 km/h 80 % 0 mm 587.00 W/m2
13:24 -9.2 °C -11.3 °C 34032.7 hPa SSW 28.5 km/h 57 km/h 78 % 0 mm 91.00 W/m2
13:29 -9.2 °C -11.4 °C 34029.3 hPa SSW 31.1 km/h 67.3 km/h 77 % 0 mm 359.00 W/m2
13:34 -9.1 °C -11.4 °C 34032.7 hPa SSW 36.2 km/h 69.8 km/h 76 % 0 mm 445.00 W/m2
13:39 -9 °C -11.2 °C 34032.7 hPa SSW 38.8 km/h 51.8 km/h 77 % 0 mm 438.00 W/m2
13:44 -8.8 °C -11.2 °C 34029.3 hPa South 31.1 km/h 64.7 km/h 76 % 0 mm 385.00 W/m2
13:49 -8.8 °C -11.2 °C 34032.7 hPa South 36.2 km/h 72.6 km/h 76 % 0 mm 438.00 W/m2
13:54 -8.8 °C -11.2 °C 34032.7 hPa South 38.8 km/h 62.1 km/h 76 % 0 mm 469.00 W/m2
13:59 -8.7 °C -11.2 °C 34032.7 hPa SSW 38.8 km/h 93.2 km/h 75 % 0 mm 487.00 W/m2
14:04 -8.8 °C -11.4 °C 34029.3 hPa South 44.1 km/h 90.6 km/h 74 % 0 mm 123.00 W/m2
14:09 -9 °C -11.4 °C 34029.3 hPa SSW 49.2 km/h 75.2 km/h 75 % 0 mm 137.00 W/m2
14:14 -9 °C -11.3 °C 34032.7 hPa South 44.1 km/h 57 km/h 76 % 0 mm 125.00 W/m2
14:19 -9.1 °C -11.4 °C 34029.3 hPa South 38.8 km/h 69.8 km/h 76 % 0 mm 229.00 W/m2
14:24 -8.9 °C -11.4 °C 34025.9 hPa South 38.8 km/h 57 km/h 75 % 0 mm 468.00 W/m2
14:29 -8.8 °C -11.4 °C 34029.3 hPa SSW 41.4 km/h 82.9 km/h 74 % 0 mm 473.00 W/m2
14:34 -8.8 °C -11.4 °C 34029.3 hPa South 44.1 km/h 77.7 km/h 74 % 0 mm 200.00 W/m2
14:39 -8.8 °C -11.2 °C 34029.3 hPa SSW 44.1 km/h 59.5 km/h 75 % 0 mm 489.00 W/m2
14:44 -8.7 °C -11.2 °C 34029.3 hPa South 36.2 km/h 72.6 km/h 75 % 0 mm 195.00 W/m2
14:49 -8.8 °C -11.3 °C 34025.9 hPa South 33.6 km/h 75.2 km/h 75 % 0 mm 455.00 W/m2
14:54 -8.9 °C -11.4 °C 34029.3 hPa SSW 38.8 km/h 85.5 km/h 75 % 0 mm 121.00 W/m2
14:59 -9.1 °C -11.5 °C 34029.3 hPa South 44.1 km/h 93.2 km/h 75 % 0 mm 63.00 W/m2
15:04 -9.2 °C -11.5 °C 34029.3 hPa South 49.2 km/h 62.1 km/h 76 % 0 mm 79.00 W/m2
15:09 -9.2 °C -11.4 °C 34029.3 hPa SSW 41.4 km/h 64.7 km/h 77 % 0 mm 120.00 W/m2
15:14 -9.2 °C -11.3 °C 34029.3 hPa SSW 36.2 km/h 49.2 km/h 78 % 0 mm 116.00 W/m2
15:19 -9.2 °C -11.3 °C 34029.3 hPa SSW 31.1 km/h 59.5 km/h 78 % 0 mm 132.00 W/m2
15:24 -9.1 °C -11.2 °C 34025.9 hPa SSW 31.1 km/h 54.4 km/h 78 % 0 mm 260.00 W/m2
15:29 -9 °C -11.2 °C 34025.9 hPa SSW 33.6 km/h 62.1 km/h 77 % 0 mm 128.00 W/m2
15:34 -9 °C -11.6 °C 34029.3 hPa South 38.8 km/h 82.9 km/h 74 % 0 mm 83.00 W/m2
15:39 -9.1 °C -11.6 °C 34025.9 hPa SSW 49.2 km/h 82.9 km/h 74 % 0 mm 130.00 W/m2
15:44 -9.1 °C -11.5 °C 34029.3 hPa SSW 46.7 km/h 64.7 km/h 75 % 0 mm 128.00 W/m2
15:49 -9.1 °C -11.6 °C 34025.9 hPa South 41.4 km/h 95.8 km/h 74 % 0 mm 118.00 W/m2
15:54 -9.1 °C -11.7 °C 34022.5 hPa SSW 44.1 km/h 103.6 km/h 73 % 0 mm 97.00 W/m2
15:59 -9.1 °C -11.8 °C 34022.5 hPa South 51.8 km/h 82.9 km/h 73 % 0 mm 86.00 W/m2
16:04 -9.1 °C -11.7 °C 34029.3 hPa South 49.2 km/h 72.6 km/h 74 % 0 mm 158.00 W/m2
16:09 -9 °C -11.7 °C 34025.9 hPa SSW 44.1 km/h 90.6 km/h 73 % 0 mm 132.00 W/m2
16:14 -9.1 °C -11.7 °C 34029.3 hPa South 49.2 km/h 85.5 km/h 73 % 0 mm 93.00 W/m2
16:19 -9.1 °C -11.6 °C 34029.3 hPa SSW 51.8 km/h 82.9 km/h 74 % 0 mm 146.00 W/m2
16:24 -9.1 °C -11.6 °C 34032.7 hPa South 51.8 km/h 90.6 km/h 75 % 0 mm 74.00 W/m2
16:29 -9.2 °C -11.7 °C 34022.5 hPa South 51.8 km/h 85.5 km/h 75 % 0 mm 74.00 W/m2
16:34 -9.2 °C -11.7 °C 34029.3 hPa South 51.8 km/h 98.3 km/h 75 % 0 mm 69.00 W/m2
16:39 -9.2 °C -11.7 °C 34029.3 hPa South 49.2 km/h 90.6 km/h 75 % 0 mm 72.00 W/m2
16:44 -9.2 °C -11.6 °C 34025.9 hPa SSW 44.1 km/h 75.2 km/h 76 % 0 mm 91.00 W/m2
16:49 -9.2 °C -11.7 °C 34029.3 hPa South 41.4 km/h 77.7 km/h 75 % 0 mm 120.00 W/m2
16:54 -9.2 °C -11.7 °C 34036.1 hPa South 41.4 km/h 72.6 km/h 75 % 0 mm 70.00 W/m2
16:59 -9.2 °C -11.7 °C 34036.1 hPa South 49.2 km/h 101.1 km/h 75 % 0 mm 30.00 W/m2
17:04 -9.2 °C -11.7 °C 34029.3 hPa South 54.4 km/h 77.7 km/h 75 % 0 mm 46.00 W/m2
17:09 -9.3 °C -11.7 °C 34029.3 hPa South 49.2 km/h 72.6 km/h 75 % 0 mm 60.00 W/m2
17:14 -9.2 °C -11.7 °C 34032.7 hPa South 41.4 km/h 80.3 km/h 75 % 0 mm 42.00 W/m2
17:19 -9.2 °C -11.7 °C 34032.7 hPa South 44.1 km/h 111.4 km/h 74 % 0 mm 53.00 W/m2
17:24 -9.2 °C -11.7 °C 34036.1 hPa South 49.2 km/h 72.6 km/h 75 % 0 mm 28.00 W/m2
17:29 -9.2 °C -11.6 °C 34036.1 hPa South 41.4 km/h 67.3 km/h 76 % 0 mm 26.00 W/m2
17:34 -9.2 °C -11.7 °C 34039.5 hPa South 41.4 km/h 93.2 km/h 75 % 0 mm 18.00 W/m2
17:39 -9.2 °C -11.6 °C 34032.7 hPa South 46.7 km/h 77.7 km/h 76 % 0 mm 14.00 W/m2
17:44 -9.3 °C -11.6 °C 34039.5 hPa South 46.7 km/h 72.6 km/h 76 % 0 mm 14.00 W/m2
17:49 -9.3 °C -11.7 °C 34032.7 hPa South 44.1 km/h 59.5 km/h 76 % 0 mm 12.00 W/m2
17:54 -9.3 °C -11.6 °C 34042.8 hPa South 41.4 km/h 67.3 km/h 77 % 0 mm 11.00 W/m2
17:59 -9.3 °C -11.5 °C 34032.7 hPa South 38.8 km/h 75.2 km/h 77 % 0 mm 9.00 W/m2
18:04 -9.3 °C -11.4 °C 34036.1 hPa South 41.4 km/h 88 km/h 78 % 0 mm 7.00 W/m2
18:09 -9.3 °C -11.4 °C 34032.7 hPa South 46.7 km/h 77.7 km/h 78 % 0 mm 5.00 W/m2
18:14 -9.3 °C -11.4 °C 34036.1 hPa South 44.1 km/h 80.3 km/h 78 % 0 mm 5.00 W/m2
18:19 -9.3 °C -11.4 °C 34025.9 hPa South 41.4 km/h 72.6 km/h 78 % 0 mm 0.00 W/m2
18:24 -9.3 °C -11.4 °C 34032.7 hPa South 44.1 km/h 90.6 km/h 78 % 0 mm 0.00 W/m2
18:29 -9.2 °C -11.4 °C 34029.3 hPa South 44.1 km/h 77.7 km/h 77 % 0 mm 0.00 W/m2
18:34 -9.2 °C -11.3 °C 34029.3 hPa South 44.1 km/h 82.9 km/h 78 % 0 mm 0.00 W/m2
18:39 -9.2 °C -11.3 °C 34025.9 hPa South 38.8 km/h 72.6 km/h 78 % 0 mm 0.00 W/m2
18:44 -9.2 °C -11.3 °C 34029.3 hPa South 41.4 km/h 82.9 km/h 78 % 0 mm 0.00 W/m2
18:49 -9.2 °C -11.3 °C 34032.7 hPa South 41.4 km/h 77.7 km/h 78 % 0 mm 0.00 W/m2
18:54 -9.2 °C -11.3 °C 34032.7 hPa South 41.4 km/h 72.6 km/h 78 % 0 mm 0.00 W/m2
18:59 -9.1 °C -11.2 °C 34029.3 hPa South 44.1 km/h 88 km/h 78 % 0 mm 0.00 W/m2
19:04 -9.1 °C -11.2 °C 34032.7 hPa South 44.1 km/h 116.5 km/h 78 % 0 mm 0.00 W/m2
19:09 -9.1 °C -11.3 °C 34032.7 hPa South 49.2 km/h 88 km/h 77 % 0 mm 0.00 W/m2
19:14 -9.1 °C -11.2 °C 34032.7 hPa South 49.2 km/h 90.6 km/h 78 % 0 mm 0.00 W/m2
19:19 -9.1 °C -11.2 °C 34032.7 hPa South 49.2 km/h 85.5 km/h 78 % 0 mm 0.00 W/m2
19:24 -9.1 °C -11.2 °C 34042.8 hPa South 44.1 km/h 101.1 km/h 78 % 0 mm 0.00 W/m2
19:29 -9.1 °C -11.2 °C 34032.7 hPa South 44.1 km/h 106.2 km/h 78 % 0 mm 0.00 W/m2
19:34 -9.1 °C -11.2 °C 34032.7 hPa South 46.7 km/h 82.9 km/h 78 % 0 mm 0.00 W/m2
19:39 -9.1 °C -11.2 °C 34036.1 hPa South 44.1 km/h 93.2 km/h 78 % 0 mm 0.00 W/m2
19:44 -9.1 °C -11.3 °C 34032.7 hPa South 46.7 km/h 85.5 km/h 77 % 0 mm 0.00 W/m2
19:49 -9.1 °C -11.3 °C 34025.9 hPa South 44.1 km/h 57 km/h 77 % 0 mm 0.00 W/m2
19:54 -9.1 °C -11.3 °C 34032.7 hPa South 38.8 km/h 69.8 km/h 77 % 0 mm 0.00 W/m2
19:59 -9.1 °C -11.4 °C 34029.3 hPa South 38.8 km/h 72.6 km/h 76 % 0 mm 0.00 W/m2
20:04 -9 °C -11.3 °C 34032.7 hPa South 46.7 km/h 82.9 km/h 76 % 0 mm 0.00 W/m2
20:09 -9 °C -11.2 °C 34025.9 hPa South 49.2 km/h 93.2 km/h 77 % 0 mm 0.00 W/m2
20:14 -9 °C -11.2 °C 34032.7 hPa South 49.2 km/h 103.6 km/h 77 % 0 mm 0.00 W/m2
20:19 -9 °C -11.2 °C 34025.9 hPa South 51.8 km/h 88 km/h 77 % 0 mm 0.00 W/m2
20:24 -9 °C -11.2 °C 34025.9 hPa South 49.2 km/h 88 km/h 77 % 0 mm 0.00 W/m2
20:29 -9 °C -11.2 °C 34046.2 hPa South 49.2 km/h 116.5 km/h 77 % 0 mm 0.00 W/m2
20:34 -9 °C -11.2 °C 34032.7 hPa South 49.2 km/h 103.6 km/h 77 % 0 mm 0.00 W/m2
20:39 -9 °C -11.2 °C 34036.1 hPa South 51.8 km/h 85.5 km/h 77 % 0 mm 0.00 W/m2
20:44 -9 °C -11.2 °C 34039.5 hPa South 51.8 km/h 82.9 km/h 77 % 0 mm 0.00 W/m2
20:49 -9.1 °C -11.3 °C 34039.5 hPa South 49.2 km/h 67.3 km/h 77 % 0 mm 0.00 W/m2
20:54 -9.1 °C -11.3 °C 34039.5 hPa South 49.2 km/h 69.8 km/h 77 % 0 mm 0.00 W/m2
20:59 -9.1 °C -11.3 °C 34039.5 hPa South 49.2 km/h 64.7 km/h 77 % 0 mm 0.00 W/m2
21:04 -9.1 °C -11.2 °C 34042.8 hPa South 44.1 km/h 101.1 km/h 78 % 0 mm 0.00 W/m2
21:09 -9.2 °C -11.3 °C 34042.8 hPa South 46.7 km/h 85.5 km/h 78 % 0 mm 0.00 W/m2
21:14 -9.4 °C -11.4 °C 34039.5 hPa South 57 km/h 90.6 km/h 79 % 0 mm 0.00 W/m2
21:19 -9.6 °C -11.3 °C 34042.8 hPa South 57 km/h 72.6 km/h 81 % 0 mm 0.00 W/m2
21:24 -9.7 °C -11.3 °C 34039.5 hPa South 49.2 km/h 77.7 km/h 83 % 0 mm 0.00 W/m2
21:29 -9.6 °C -11.2 °C 34042.8 hPa South 46.7 km/h 82.9 km/h 83 % 0 mm 0.00 W/m2
21:34 -9.6 °C -11.2 °C 34042.8 hPa South 41.4 km/h 82.9 km/h 83 % 0 mm 0.00 W/m2
21:39 -9.5 °C -11.2 °C 34042.8 hPa South 38.8 km/h 75.2 km/h 82 % 0 mm 0.00 W/m2
21:44 -9.5 °C -11.2 °C 34042.8 hPa South 41.4 km/h 82.9 km/h 82 % 0 mm 0.00 W/m2
21:49 -9.5 °C -11.2 °C 34039.5 hPa South 44.1 km/h 90.6 km/h 82 % 0 mm 0.00 W/m2
21:54 -9.4 °C -11.1 °C 34049.6 hPa South 41.4 km/h 75.2 km/h 82 % 0 mm 0.00 W/m2
21:59 -9.3 °C -11.2 °C 34042.8 hPa South 41.4 km/h 82.9 km/h 81 % 0 mm 0.00 W/m2
22:04 -9.3 °C -11.1 °C 34053 hPa South 44.1 km/h 88 km/h 81 % 0 mm 0.00 W/m2
22:09 -9.3 °C -11.1 °C 34056.4 hPa South 46.7 km/h 64.7 km/h 81 % 0 mm 0.00 W/m2
22:14 -9.3 °C -11.1 °C 34042.8 hPa South 41.4 km/h 82.9 km/h 81 % 0 mm 0.00 W/m2
22:19 -9.3 °C -11.1 °C 34049.6 hPa South 41.4 km/h 85.5 km/h 81 % 0 mm 0.00 W/m2
22:24 -9.3 °C -11.1 °C 34049.6 hPa South 44.1 km/h 103.6 km/h 81 % 0 mm 0.00 W/m2
22:29 -9.3 °C -11 °C 34042.8 hPa South 46.7 km/h 82.9 km/h 82 % 0 mm 0.00 W/m2
22:34 -9.3 °C -11 °C 34046.2 hPa South 44.1 km/h 72.6 km/h 82 % 0 mm 0.00 W/m2
22:39 -9.3 °C -11 °C 34046.2 hPa South 41.4 km/h 69.8 km/h 82 % 0 mm 0.00 W/m2
22:44 -9.4 °C -11.1 °C 34039.5 hPa South 41.4 km/h 67.3 km/h 82 % 0 mm 0.00 W/m2
22:49 -9.4 °C -11.1 °C 34042.8 hPa South 38.8 km/h 62.1 km/h 82 % 0 mm 0.00 W/m2
22:54 -9.3 °C -11 °C 34042.8 hPa South 38.8 km/h 67.3 km/h 82 % 0 mm 0.00 W/m2
22:59 -9.3 °C -11.2 °C 34039.5 hPa South 38.8 km/h 72.6 km/h 81 % 0 mm 0.00 W/m2
23:04 -9.3 °C -11.2 °C 34036.1 hPa SSW 38.8 km/h 51.8 km/h 81 % 0 mm 0.00 W/m2
23:09 -9.4 °C -11.2 °C 34036.1 hPa South 33.6 km/h 64.7 km/h 81 % 0 mm 0.00 W/m2
23:14 -9.4 °C -11.2 °C 34032.7 hPa SSW 31.1 km/h 57 km/h 81 % 0 mm 0.00 W/m2
23:19 -9.4 °C -11.2 °C 34036.1 hPa SSW 31.1 km/h 59.5 km/h 81 % 0 mm 0.00 W/m2
23:24 -9.4 °C -11.2 °C 34036.1 hPa South 31.1 km/h 62.1 km/h 81 % 0 mm 0.00 W/m2
23:29 -9.4 °C -11.2 °C 34039.5 hPa South 33.6 km/h 75.2 km/h 81 % 0 mm 0.00 W/m2
23:34 -9.3 °C -11.2 °C 34039.5 hPa South 36.2 km/h 72.6 km/h 81 % 0 mm 0.00 W/m2
23:39 -9.3 °C -11.2 °C 34036.1 hPa South 41.4 km/h 67.3 km/h 80 % 0 mm 0.00 W/m2
23:44 -9.3 °C -11.2 °C 34036.1 hPa South 41.4 km/h 69.8 km/h 80 % 0 mm 0.00 W/m2
23:49 -9.3 °C -11.2 °C 34036.1 hPa South 41.4 km/h 69.8 km/h 81 % 0 mm 0.00 W/m2
23:54 -9.4 °C -11.2 °C 34036.1 hPa South 41.4 km/h 67.3 km/h 81 % 0 mm 0.00 W/m2
23:59 -9.4 °C -11.2 °C 34036.1 hPa South 41.4 km/h 93.2 km/h 81 % 0 mm 0.00 W/m2
Meteocoruña
Agradecimientos a Weather Underground - 3 mb